createdAt,value
2016-06-29T00:00:25.511Z,38.26
2016-06-29T00:01:25.548Z,38.35
2016-06-29T00:02:26.193Z,38.45
2016-06-29T00:03:26.223Z,38.45
2016-06-29T00:04:26.240Z,38.16
2016-06-29T00:05:26.270Z,38.45
2016-06-29T00:06:25.699Z,38.45
2016-06-29T00:07:26.320Z,38.54
2016-06-29T00:08:26.344Z,38.45
2016-06-29T00:09:26.371Z,38.16
2016-06-29T00:10:25.787Z,38.45
2016-06-29T00:11:26.433Z,38.45
2016-06-29T00:12:25.836Z,38.45
2016-06-29T00:13:26.478Z,38.64
2016-06-29T00:14:26.510Z,38.64
2016-06-29T00:15:26.545Z,38.06
2016-06-29T00:16:25.945Z,38.83
2016-06-29T00:17:26.599Z,38.64
2016-06-29T00:18:26.606Z,38.33
2016-06-29T00:19:32.380Z,38.54
2016-06-29T00:20:26.678Z,38.74
2016-06-29T00:21:26.701Z,38.93
2016-06-29T00:22:26.126Z,38.83
2016-06-29T00:23:26.135Z,38.83
2016-06-29T00:24:26.776Z,38.93
2016-06-29T00:25:26.805Z,39.11
2016-06-29T00:26:26.218Z,39.11
2016-06-29T00:27:26.873Z,38.93
2016-06-29T00:28:26.270Z,38.83
2016-06-29T00:29:26.296Z,39.12
2016-06-29T00:30:26.934Z,39.12
2016-06-29T00:31:26.965Z,39.22
2016-06-29T00:32:26.379Z,39.41
2016-06-29T00:33:27.083Z,39.22
2016-06-29T00:34:27.081Z,39.29
2016-06-29T00:35:27.062Z,39.2
2016-06-29T00:36:26.522Z,39.31
2016-06-29T00:37:27.122Z,39.29
2016-06-29T00:38:27.152Z,39.41
2016-06-29T00:39:27.374Z,39.51
2016-06-29T00:40:26.597Z,39.7
2016-06-29T00:41:27.229Z,39.87
2016-06-29T00:42:27.272Z,39.59
2016-06-29T00:43:27.283Z,39.87
2016-06-29T00:44:27.306Z,39.78
2016-06-29T00:45:27.343Z,39.87
2016-06-29T00:46:27.359Z,39.59
2016-06-29T00:47:27.393Z,39.89
2016-06-29T00:48:26.799Z,39.59
2016-06-29T00:49:27.445Z,39.79
2016-06-29T00:50:27.463Z,40.07
2016-06-29T00:51:26.878Z,40.16
2016-06-29T00:52:27.514Z,40.07
2016-06-29T00:53:26.923Z,40.66
2016-06-29T00:54:27.578Z,40.45
2016-06-29T00:55:27.596Z,40.64
2016-06-29T00:56:27.633Z,40.55
2016-06-29T00:57:27.653Z,40.55
2016-06-29T00:58:27.058Z,40.94
2016-06-29T00:59:27.091Z,40.94
2016-06-29T01:00:27.730Z,41.13
2016-06-29T01:01:27.758Z,41.03
2016-06-29T01:02:27.191Z,41.03
2016-06-29T01:03:27.825Z,40.94
2016-06-29T01:04:27.225Z,41.03
2016-06-29T01:05:27.867Z,41.13
2016-06-29T01:06:27.895Z,41.13
2016-06-29T01:07:27.927Z,41.22
2016-06-29T01:08:27.965Z,41.22
2016-06-29T01:09:27.345Z,41.32
2016-06-29T01:10:28.005Z,41.13
2016-06-29T01:11:28.026Z,41.22
2016-06-29T01:12:28.058Z,41.89
2016-06-29T01:13:27.490Z,41.89
2016-06-29T01:14:27.489Z,42.19
2016-06-29T01:15:28.126Z,42.19
2016-06-29T01:16:28.157Z,42.38
2016-06-29T01:17:27.562Z,42.28
2016-06-29T01:18:28.212Z,42.38
2016-06-29T01:19:27.611Z,42.57
2016-06-29T01:20:27.646Z,42.57
2016-06-29T01:21:27.670Z,42.76
2016-06-29T01:22:27.729Z,42.38
2016-06-29T01:23:28.350Z,42.19
2016-06-29T01:24:28.362Z,42.96
2016-06-29T01:25:27.770Z,42.76
2016-06-29T01:26:28.411Z,42.76
2016-06-29T01:27:28.462Z,42.86
2016-06-29T01:28:27.847Z,42.86
2016-06-29T01:29:28.496Z,43.05
2016-06-29T01:30:28.522Z,43.24
2016-06-29T01:31:28.542Z,43.24
2016-06-29T01:32:28.567Z,43.63
2016-06-29T01:33:28.000Z,43.24
2016-06-29T01:34:28.015Z,43.24
2016-06-29T01:35:28.053Z,43.41
2016-06-29T01:36:28.053Z,43.8
2016-06-29T01:37:28.697Z,43.73
2016-06-29T01:38:28.749Z,43.92
2016-06-29T01:39:28.765Z,44.02
2016-06-29T01:40:28.791Z,44.09
2016-06-29T01:41:28.818Z,43.92
2016-06-29T01:42:28.839Z,44.48
2016-06-29T01:43:28.247Z,44.59
2016-06-29T01:44:28.895Z,44.4
2016-06-29T01:45:28.915Z,44.69
2016-06-29T01:46:28.935Z,44.79
2016-06-29T01:47:28.345Z,44.76
2016-06-29T01:48:28.389Z,44.57
2016-06-29T01:49:29.045Z,44.59
2016-06-29T01:50:29.052Z,44.57
2016-06-29T01:51:28.447Z,44.67
2016-06-29T01:52:29.096Z,44.76
2016-06-29T01:53:29.151Z,44.57
2016-06-29T01:54:28.534Z,44.76
2016-06-29T01:55:29.174Z,44.76
2016-06-29T01:56:29.194Z,44.67
2016-06-29T01:57:29.241Z,44.57
2016-06-29T01:58:29.259Z,44.76
2016-06-29T01:59:28.663Z,44.76
2016-06-29T02:00:29.313Z,44.96
2016-06-29T02:01:28.729Z,44.96
2016-06-29T02:02:29.374Z,44.86
2016-06-29T02:03:29.405Z,45.05
2016-06-29T02:04:28.803Z,45.44
2016-06-29T02:05:28.815Z,45.34
2016-06-29T02:06:28.849Z,45.25
2016-06-29T02:07:29.486Z,45.53
2016-06-29T02:08:29.511Z,45.63
2016-06-29T02:09:28.926Z,45.83
2016-06-29T02:10:29.570Z,45.63
2016-06-29T02:11:28.986Z,45.92
2016-06-29T02:12:29.021Z,45.83
2016-06-29T02:13:29.029Z,46.01
2016-06-29T02:14:29.692Z,45.83
2016-06-29T02:15:29.079Z,46.11
2016-06-29T02:16:29.720Z,46.01
2016-06-29T02:17:29.135Z,46.01
2016-06-29T02:18:29.774Z,46.21
2016-06-29T02:19:29.882Z,46.5
2016-06-29T02:20:29.910Z,46.78
2016-06-29T02:21:29.852Z,47.46
2016-06-29T02:22:29.257Z,47.56
2016-06-29T02:23:29.294Z,47.85
2016-06-29T02:24:29.930Z,47.65
2016-06-29T02:25:29.997Z,47.85
2016-06-29T02:26:29.987Z,48.33
2016-06-29T02:27:29.449Z,48.71
2016-06-29T02:28:30.118Z,48.52
2016-06-29T02:29:30.073Z,48.52
2016-06-29T02:30:30.092Z,49
2016-06-29T02:31:30.122Z,48.81
2016-06-29T02:32:29.527Z,48.9
2016-06-29T02:33:30.215Z,49.07
2016-06-29T02:34:30.217Z,49.58
2016-06-29T02:35:30.454Z,49.48
2016-06-29T02:36:30.244Z,49.17
2016-06-29T02:37:29.665Z,49.48
2016-06-29T02:38:29.687Z,49.58
2016-06-29T02:39:30.331Z,49.77
2016-06-29T02:40:29.734Z,50.04
2016-06-29T02:41:29.755Z,50.51
2016-06-29T02:42:30.403Z,50.35
2016-06-29T02:43:30.426Z,50.71
2016-06-29T02:44:30.448Z,51.09
2016-06-29T02:45:29.871Z,50.99
2016-06-29T02:46:29.885Z,51.5
2016-06-29T02:47:30.536Z,52.18
2016-06-29T02:48:29.933Z,51.79
2016-06-29T02:49:29.963Z,52.66
2016-06-29T02:50:30.012Z,52.85
2016-06-29T02:51:30.710Z,53.33
2016-06-29T02:52:30.659Z,53.5
2016-06-29T02:53:30.689Z,53.4
2016-06-29T02:54:30.832Z,53.23
2016-06-29T02:55:30.755Z,54.46
2016-06-29T02:56:30.145Z,55.04
2016-06-29T02:57:30.797Z,54.94
2016-06-29T02:58:30.198Z,54.85
2016-06-29T02:59:30.842Z,55.13
2016-06-29T03:00:30.250Z,54.75
2016-06-29T03:01:30.890Z,55.23
2016-06-29T03:02:30.310Z,55.9
2016-06-29T03:03:30.946Z,55.81
2016-06-29T03:04:30.970Z,55.33
2016-06-29T03:05:30.397Z,56.1
2016-06-29T03:06:31.021Z,56.2
2016-06-29T03:07:31.058Z,56.1
2016-06-29T03:08:31.079Z,56.77
2016-06-29T03:09:31.103Z,56.67
2016-06-29T03:10:31.130Z,56.67
2016-06-29T03:11:31.150Z,56.38
2016-06-29T03:12:31.202Z,56
2016-06-29T03:13:30.579Z,56.1
2016-06-29T03:14:30.613Z,56.1
2016-06-29T03:15:30.644Z,56.2
2016-06-29T03:16:30.660Z,56.1
2016-06-29T03:17:31.307Z,56.58
2016-06-29T03:18:31.330Z,56.87
2016-06-29T03:19:31.360Z,57.25
2016-06-29T03:20:31.377Z,57.25
2016-06-29T03:21:31.424Z,56.96
2016-06-29T03:22:31.430Z,56.77
2016-06-29T03:23:30.854Z,56.48
2016-06-29T03:24:30.865Z,56.77
2016-06-29T03:25:30.887Z,56.58
2016-06-29T03:26:31.525Z,57.35
2016-06-29T03:27:31.560Z,56.77
2016-06-29T03:28:31.574Z,57.06
2016-06-29T03:29:31.642Z,56.87
2016-06-29T03:30:31.654Z,57.54
2016-06-29T03:31:31.665Z,56.77
2016-06-29T03:32:31.699Z,57.45
2016-06-29T03:33:31.088Z,57.45
2016-06-29T03:34:31.741Z,57.06
2016-06-29T03:35:31.200Z,56.96
2016-06-29T03:36:31.794Z,57.15
2016-06-29T03:37:31.810Z,57.06
2016-06-29T03:38:31.839Z,57.25
2016-06-29T03:39:31.247Z,57.06
2016-06-29T03:40:31.899Z,57.35
2016-06-29T03:41:31.286Z,57.54
2016-06-29T03:42:31.334Z,57.25
2016-06-29T03:43:31.972Z,57.54
2016-06-29T03:44:32.002Z,57.54
2016-06-29T03:45:32.013Z,57.25
2016-06-29T03:46:32.050Z,57.73
2016-06-29T03:47:32.069Z,57.54
2016-06-29T03:48:31.472Z,57.83
2016-06-29T03:49:31.521Z,57.92
2016-06-29T03:50:31.534Z,57.64
2016-06-29T03:51:32.165Z,57.54
2016-06-29T03:52:32.194Z,57.64
2016-06-29T03:53:31.610Z,58.4
2016-06-29T03:54:31.617Z,58.22
2016-06-29T03:55:31.647Z,57.92
2016-06-29T03:56:32.289Z,57.73
2016-06-29T03:57:32.313Z,58.31
2016-06-29T03:58:32.342Z,58.31
2016-06-29T03:59:31.761Z,57.73
2016-06-29T04:00:32.389Z,58.12
2016-06-29T04:01:31.795Z,57.73
2016-06-29T04:02:31.823Z,57.83
2016-06-29T04:03:32.473Z,58.22
2016-06-29T04:04:31.879Z,58.4
2016-06-29T04:05:32.524Z,58.6
2016-06-29T04:06:31.929Z,58.6
2016-06-29T04:07:32.569Z,57.92
2016-06-29T04:08:32.640Z,58.5
2016-06-29T04:09:32.633Z,58.79
2016-06-29T04:10:32.645Z,58.22
2016-06-29T04:11:32.050Z,58.22
2016-06-29T04:12:32.697Z,58.22
2016-06-29T04:13:32.093Z,58.02
2016-06-29T04:14:32.131Z,58.22
2016-06-29T04:15:32.146Z,58.31
2016-06-29T04:16:32.178Z,58.5
2016-06-29T04:17:32.199Z,58.02
2016-06-29T04:18:32.853Z,58.31
2016-06-29T04:19:32.868Z,58.79
2016-06-29T04:20:32.895Z,58.79
2016-06-29T04:21:32.931Z,58.31
2016-06-29T04:22:32.342Z,58.4
2016-06-29T04:23:32.958Z,58.98
2016-06-29T04:24:32.395Z,58.7
2016-06-29T04:25:33.022Z,58.98
2016-06-29T04:26:32.423Z,59.17
2016-06-29T04:27:33.095Z,59.27
2016-06-29T04:28:32.494Z,59.47
2016-06-29T04:29:32.523Z,59.08
2016-06-29T04:30:33.162Z,58.98
2016-06-29T04:31:33.165Z,59.08
2016-06-29T04:32:33.188Z,58.22
2016-06-29T04:33:32.618Z,59.08
2016-06-29T04:34:32.631Z,58.7
2016-06-29T04:35:33.272Z,59.37
2016-06-29T04:36:32.682Z,59.08
2016-06-29T04:37:33.319Z,59.08
2016-06-29T04:38:33.348Z,59.08
2016-06-29T04:39:32.757Z,59.27
2016-06-29T04:40:33.403Z,59.47
2016-06-29T04:41:33.421Z,58.89
2016-06-29T04:42:32.855Z,59.27
2016-06-29T04:43:32.852Z,58.89
2016-06-29T04:44:32.899Z,59.47
2016-06-29T04:45:32.895Z,59.75
2016-06-29T04:46:33.545Z,59.75
2016-06-29T04:47:33.814Z,59.37
2016-06-29T04:48:32.982Z,59.56
2016-06-29T04:49:33.626Z,59.27
2016-06-29T04:50:33.027Z,59.59
2016-06-29T04:51:33.053Z,59.88
2016-06-29T04:52:33.692Z,59.85
2016-06-29T04:53:33.107Z,59.56
2016-06-29T04:54:33.134Z,60.14
2016-06-29T04:55:33.413Z,60.84
2016-06-29T04:56:33.797Z,60.33
2016-06-29T04:57:33.898Z,60.65
2016-06-29T04:58:33.839Z,60.46
2016-06-29T04:59:33.867Z,60.75
2016-06-29T05:00:33.894Z,60.84
2016-06-29T05:01:33.317Z,60.27
2016-06-29T05:02:33.946Z,60.55
2016-06-29T05:03:33.982Z,61.32
2016-06-29T05:04:34.003Z,61.22
2016-06-29T05:05:34.031Z,61.04
2016-06-29T05:06:33.427Z,61.52
2016-06-29T05:07:34.082Z,61.22
2016-06-29T05:08:34.095Z,61.61
2016-06-29T05:09:33.543Z,61.32
2016-06-29T05:10:34.155Z,61.71
2016-06-29T05:11:33.563Z,61.42
2016-06-29T05:12:34.195Z,61.22
2016-06-29T05:13:33.603Z,61.9
2016-06-29T05:14:33.624Z,61.61
2016-06-29T05:15:34.268Z,61.22
2016-06-29T05:16:34.298Z,61.04
2016-06-29T05:17:34.331Z,61.8
2016-06-29T05:18:34.362Z,62.38
2016-06-29T05:19:33.755Z,62.19
2016-06-29T05:20:33.778Z,61.42
2016-06-29T05:21:34.419Z,61.8
2016-06-29T05:22:33.835Z,61.32
2016-06-29T05:23:33.854Z,61.9
2016-06-29T05:24:34.495Z,61.9
2016-06-29T05:25:34.545Z,62.48
2016-06-29T05:26:34.568Z,61.61
2016-06-29T05:27:33.942Z,61.61
2016-06-29T05:28:33.986Z,62
2016-06-29T05:29:34.009Z,61.9
2016-06-29T05:30:34.037Z,61.8
2016-06-29T05:31:34.682Z,61.71
2016-06-29T05:32:34.697Z,61.32
2016-06-29T05:33:34.730Z,62.29
2016-06-29T05:34:34.761Z,62.48
2016-06-29T05:35:34.158Z,62.29
2016-06-29T05:36:34.808Z,62.77
2016-06-29T05:37:34.205Z,62.48
2016-06-29T05:38:34.238Z,62.09
2016-06-29T05:39:34.271Z,62.48
2016-06-29T05:40:34.895Z,62.38
2016-06-29T05:41:34.305Z,62.19
2016-06-29T05:42:34.342Z,62.09
2016-06-29T05:43:34.362Z,62
2016-06-29T05:44:34.382Z,61.61
2016-06-29T05:45:34.413Z,61.52
2016-06-29T05:46:35.048Z,61.42
2016-06-29T05:47:34.455Z,61.8
2016-06-29T05:48:34.488Z,62
2016-06-29T05:49:35.209Z,62.67
2016-06-29T05:50:35.248Z,62.57
2016-06-29T05:51:35.259Z,62.77
2016-06-29T05:52:35.251Z,62.77
2016-06-29T05:53:35.325Z,62.87
2016-06-29T05:54:34.630Z,62.29
2016-06-29T05:55:35.345Z,62.19
2016-06-29T05:56:34.683Z,61.61
2016-06-29T05:57:34.715Z,62.09
2016-06-29T05:58:35.355Z,61.45
2016-06-29T05:59:35.482Z,62.7
2016-06-29T06:00:35.491Z,63.28
2016-06-29T06:01:35.517Z,63.28
2016-06-29T06:02:35.567Z,62.51
2016-06-29T06:03:35.531Z,63.28
2016-06-29T06:04:34.898Z,63.18
2016-06-29T06:05:35.126Z,63.28
2016-06-29T06:06:35.663Z,62.9
2016-06-29T06:07:35.591Z,63.67
2016-06-29T06:08:35.109Z,63.85
2016-06-29T06:09:35.020Z,63.09
2016-06-29T06:10:35.152Z,63.85
2016-06-29T06:11:35.152Z,63.47
2016-06-29T06:12:35.711Z,63.38
2016-06-29T06:13:35.736Z,62.9
2016-06-29T06:14:35.769Z,63.28
2016-06-29T06:15:35.794Z,63.28
2016-06-29T06:16:35.816Z,63.28
2016-06-29T06:17:35.841Z,63.41
2016-06-29T06:18:35.865Z,63.7
2016-06-29T06:19:35.321Z,63.41
2016-06-29T06:20:35.303Z,63.95
2016-06-29T06:21:35.942Z,63.5
2016-06-29T06:22:35.428Z,62.93
2016-06-29T06:23:35.992Z,63.21
2016-06-29T06:24:36.026Z,63.21
2016-06-29T06:25:35.485Z,63.09
2016-06-29T06:26:36.070Z,63.02
2016-06-29T06:27:35.476Z,63.6
2016-06-29T06:28:35.502Z,63.12
2016-06-29T06:29:36.147Z,63.41
2016-06-29T06:30:35.558Z,63.41
2016-06-29T06:31:36.201Z,63.02
2016-06-29T06:32:36.242Z,63.12
2016-06-29T06:33:36.255Z,63.5
2016-06-29T06:34:36.273Z,63.21
2016-06-29T06:35:36.298Z,63.12
2016-06-29T06:36:36.322Z,62.63
2016-06-29T06:37:35.743Z,62.06
2016-06-29T06:38:36.369Z,62.54
2016-06-29T06:39:36.410Z,62.25
2016-06-29T06:40:35.821Z,61.77
2016-06-29T06:41:35.840Z,61.58
2016-06-29T06:42:36.474Z,61.38
2016-06-29T06:43:35.881Z,61.58
2016-06-29T06:44:35.930Z,61.38
2016-06-29T06:45:36.550Z,61.77
2016-06-29T06:46:36.591Z,61.68
2016-06-29T06:47:35.982Z,60.71
2016-06-29T06:48:36.629Z,60.42
2016-06-29T06:49:36.655Z,60.71
2016-06-29T06:50:36.686Z,60.03
2016-06-29T06:51:36.103Z,59.07
2016-06-29T06:52:36.138Z,59.17
2016-06-29T06:53:36.757Z,58.49
2016-06-29T06:54:36.784Z,58.69
2016-06-29T06:55:36.815Z,58.2
2016-06-29T06:56:36.835Z,58.59
2016-06-29T06:57:36.864Z,58.59
2016-06-29T06:58:36.263Z,57.92
2016-06-29T06:59:36.321Z,57.82
2016-06-29T07:00:36.958Z,57.53
2016-06-29T07:01:36.992Z,57.82
2016-06-29T07:02:37.007Z,57.43
2016-06-29T07:03:37.014Z,57.34
2016-06-29T07:04:37.326Z,57.43
2016-06-29T07:05:36.448Z,57.14
2016-06-29T07:06:37.118Z,57.75
2016-06-29T07:07:37.121Z,57.85
2016-06-29T07:08:37.152Z,57.56
2016-06-29T07:09:37.193Z,56.79
2016-06-29T07:10:37.191Z,57.07
2016-06-29T07:11:36.597Z,57.07
2016-06-29T07:12:37.245Z,57.27
2016-06-29T07:13:36.668Z,56.3
2016-06-29T07:14:36.683Z,56.79
2016-06-29T07:15:36.706Z,56.79
2016-06-29T07:16:36.739Z,56.49
2016-06-29T07:17:37.374Z,56.49
2016-06-29T07:18:36.802Z,56.24
2016-06-29T07:19:36.825Z,56.01
2016-06-29T07:20:37.471Z,56.43
2016-06-29T07:21:37.487Z,56.24
2016-06-29T07:22:37.507Z,55.85
2016-06-29T07:23:37.531Z,56.04
2016-06-29T07:24:37.565Z,56.04
2016-06-29T07:25:37.595Z,55.56
2016-06-29T07:26:37.013Z,55.27
2016-06-29T07:27:37.030Z,54.98
2016-06-29T07:28:37.057Z,55.18
2016-06-29T07:29:37.120Z,55.46
2016-06-29T07:30:37.712Z,55.27
2016-06-29T07:31:37.129Z,54.69
2016-06-29T07:32:37.164Z,55.08
2016-06-29T07:33:37.182Z,55.2
2016-06-29T07:34:37.830Z,54.62
2016-06-29T07:35:37.230Z,54.05
2016-06-29T07:36:37.261Z,55.01
2016-06-29T07:37:37.905Z,54.72
2016-06-29T07:38:37.309Z,54.33
2016-06-29T07:39:38.044Z,54.53
2016-06-29T07:40:38.058Z,54.24
2016-06-29T07:41:37.389Z,54.14
2016-06-29T07:42:37.459Z,53.85
2016-06-29T07:43:37.444Z,53.95
2016-06-29T07:44:37.471Z,53.88
2016-06-29T07:45:37.495Z,53.69
2016-06-29T07:46:38.227Z,53.49
2016-06-29T07:47:38.264Z,53.2
2016-06-29T07:48:38.259Z,53.01
2016-06-29T07:49:37.591Z,52.91
2016-06-29T07:50:38.285Z,52.53
2016-06-29T07:51:38.331Z,52.81
2016-06-29T07:52:37.759Z,52.53
2016-06-29T07:53:37.702Z,52.07
2016-06-29T07:54:37.738Z,51.97
2016-06-29T07:55:38.374Z,51.87
2016-06-29T07:56:38.403Z,52.17
2016-06-29T07:57:37.812Z,51.68
2016-06-29T07:58:38.458Z,51.29
2016-06-29T07:59:38.483Z,51.01
2016-06-29T08:00:38.533Z,51.29
2016-06-29T08:01:38.102Z,51.29
2016-06-29T08:02:38.068Z,50.81
2016-06-29T08:03:38.075Z,50.55
2016-06-29T08:04:38.621Z,50.55
2016-06-29T08:05:38.022Z,50.45
2016-06-29T08:06:38.655Z,50.45
2016-06-29T08:07:38.693Z,49.97
2016-06-29T08:08:38.202Z,49.8
2016-06-29T08:09:38.206Z,49.8
2016-06-29T08:10:38.766Z,49.02
2016-06-29T08:11:38.811Z,49.02
2016-06-29T08:12:38.906Z,48.25
2016-06-29T08:13:38.851Z,48.57
2016-06-29T08:14:38.354Z,48.25
2016-06-29T08:15:38.368Z,47.99
2016-06-29T08:16:38.390Z,47.31
2016-06-29T08:17:38.954Z,47.6
2016-06-29T08:18:38.369Z,47.11
2016-06-29T08:19:38.404Z,47.21
2016-06-29T08:20:39.040Z,46.73
2016-06-29T08:21:39.074Z,46.83
2016-06-29T08:22:39.095Z,46.53
2016-06-29T08:23:39.122Z,46.25
2016-06-29T08:24:39.148Z,46.08
2016-06-29T08:25:39.176Z,45.86
2016-06-29T08:26:38.582Z,45.88
2016-06-29T08:27:38.615Z,45.59
2016-06-29T08:28:38.631Z,45.2
2016-06-29T08:29:39.332Z,45.2
2016-06-29T08:30:38.697Z,45.1
2016-06-29T08:31:38.718Z,45.13
2016-06-29T08:32:38.766Z,45.03
2016-06-29T08:33:38.769Z,44.64
2016-06-29T08:34:39.419Z,44.84
2016-06-29T08:35:39.454Z,44.35
2016-06-29T08:36:39.475Z,44.18
2016-06-29T08:37:38.908Z,43.77
2016-06-29T08:38:39.530Z,44.09
2016-06-29T08:39:38.943Z,43.99
2016-06-29T08:40:38.979Z,43.21
2016-06-29T08:41:39.003Z,42.92
2016-06-29T08:42:39.025Z,43.43
2016-06-29T08:43:39.043Z,42.75
2016-06-29T08:44:39.683Z,42.46
2016-06-29T08:45:39.723Z,42.46
2016-06-29T08:46:39.745Z,42.07
2016-06-29T08:47:39.158Z,42.07
2016-06-29T08:48:39.807Z,41.88
2016-06-29T08:49:39.221Z,41.78
2016-06-29T08:50:39.236Z,41.49
2016-06-29T08:51:39.885Z,41.58
2016-06-29T08:52:39.298Z,41.41
2016-06-29T08:53:39.986Z,41.61
2016-06-29T08:54:39.983Z,41.61
2016-06-29T08:55:39.393Z,41.31
2016-06-29T08:56:40.066Z,41.31
2016-06-29T08:57:40.071Z,41.33
2016-06-29T08:58:39.459Z,40.66
2016-06-29T08:59:39.491Z,40.36
2016-06-29T09:00:39.520Z,40.17
2016-06-29T09:01:39.543Z,40.17
2016-06-29T09:02:40.268Z,39.88
2016-06-29T09:03:40.275Z,39.39
2016-06-29T09:04:39.632Z,39.29
2016-06-29T09:05:40.292Z,39.01
2016-06-29T09:06:40.399Z,38.83
2016-06-29T09:07:40.411Z,39.03
2016-06-29T09:08:40.370Z,38.64
2016-06-29T09:09:39.774Z,38.54
2016-06-29T09:10:40.420Z,37.76
2016-06-29T09:11:40.465Z,38.15
2016-06-29T09:12:40.472Z,37.47
2016-06-29T09:13:40.514Z,37.86
2016-06-29T09:14:40.532Z,38.15
2016-06-29T09:15:40.567Z,37.96
2016-06-29T09:16:40.600Z,38.06
2016-06-29T09:17:40.620Z,38.06
2016-06-29T09:18:40.071Z,38.17
2016-06-29T09:19:40.681Z,37.88
2016-06-29T09:20:40.714Z,38.17
2016-06-29T09:21:40.151Z,37.88
2016-06-29T09:22:40.758Z,37.49
2016-06-29T09:23:40.802Z,37.59
2016-06-29T09:24:40.205Z,37.02
2016-06-29T09:25:40.225Z,37.32
2016-06-29T09:26:40.926Z,36.93
2016-06-29T09:27:40.903Z,36.73
2016-06-29T09:28:40.316Z,36.73
2016-06-29T09:29:40.974Z,36.65
2016-06-29T09:30:41.003Z,36.55
2016-06-29T09:31:41.028Z,36.36
2016-06-29T09:32:40.429Z,36.36
2016-06-29T09:33:41.085Z,36.75
2016-06-29T09:34:41.107Z,35.89
2016-06-29T09:35:41.134Z,36.28
2016-06-29T09:36:41.174Z,35.7
2016-06-29T09:37:41.207Z,35.71
2016-06-29T09:38:40.627Z,35.61
2016-06-29T09:39:41.256Z,35.23
2016-06-29T09:40:40.667Z,34.94
2016-06-29T09:41:41.325Z,34.45
2016-06-29T09:42:40.734Z,34.35
2016-06-29T09:43:41.396Z,34.16
2016-06-29T09:44:40.798Z,33.86
2016-06-29T09:45:41.437Z,33.86
2016-06-29T09:46:40.850Z,33.78
2016-06-29T09:47:40.878Z,33.98
2016-06-29T09:48:41.537Z,33.86
2016-06-29T09:49:41.554Z,34.08
2016-06-29T09:50:41.589Z,34.08
2016-06-29T09:51:41.618Z,34.08
2016-06-29T09:52:41.643Z,33.98
2016-06-29T09:53:41.067Z,33.8
2016-06-29T09:54:41.111Z,33.31
2016-06-29T09:55:41.736Z,33.41
2016-06-29T09:56:41.766Z,33.41
2016-06-29T09:57:41.800Z,32.63
2016-06-29T09:58:41.210Z,32.43
2016-06-29T09:59:41.235Z,32.24
2016-06-29T10:00:41.266Z,32.24
2016-06-29T10:01:41.914Z,32.35
2016-06-29T10:02:41.945Z,32.06
2016-06-29T10:03:41.970Z,32.35
2016-06-29T10:04:41.382Z,31.96
2016-06-29T10:05:41.415Z,31.48
2016-06-29T10:06:41.438Z,31.77
2016-06-29T10:07:41.472Z,31.69
2016-06-29T10:08:41.502Z,31.1
2016-06-29T10:09:42.153Z,30.81
2016-06-29T10:10:42.197Z,31.4
2016-06-29T10:11:41.599Z,31.4
2016-06-29T10:12:41.612Z,31.3
2016-06-29T10:13:42.291Z,31.02
2016-06-29T10:14:41.693Z,30.93
2016-06-29T10:15:41.715Z,30.54
2016-06-29T10:16:42.377Z,30.63
2016-06-29T10:17:42.405Z,30.34
2016-06-29T10:18:42.430Z,30.44
2016-06-29T10:19:41.837Z,30.35
2016-06-29T10:20:42.487Z,30.55
2016-06-29T10:21:42.527Z,30.35
2016-06-29T10:22:42.569Z,30.26
2016-06-29T10:23:42.608Z,30.16
2016-06-29T10:24:42.607Z,29.88
2016-06-29T10:25:42.038Z,29.98
2016-06-29T10:26:42.671Z,29.79
2016-06-29T10:27:42.703Z,29.69
2016-06-29T10:28:42.734Z,29.31
2016-06-29T10:29:42.766Z,28.92
2016-06-29T10:30:42.805Z,28.82
2016-06-29T10:31:42.842Z,28.53
2016-06-29T10:32:42.863Z,28.14
2016-06-29T10:33:42.274Z,28.23
2016-06-29T10:34:42.352Z,28.04
2016-06-29T10:35:42.953Z,27.94
2016-06-29T10:36:42.986Z,27.84
2016-06-29T10:37:42.419Z,27.66
2016-06-29T10:38:43.048Z,27.75
2016-06-29T10:39:43.082Z,27.47
2016-06-29T10:40:42.487Z,27.08
2016-06-29T10:41:42.514Z,27.08
2016-06-29T10:42:43.171Z,27.27
2016-06-29T10:43:43.235Z,27.27
2016-06-29T10:44:43.243Z,27.27
2016-06-29T10:45:43.269Z,27.27
2016-06-29T10:46:42.690Z,26.98
2016-06-29T10:47:43.343Z,27.08
2016-06-29T10:48:42.750Z,27.08
2016-06-29T10:49:43.403Z,27.37
2016-06-29T10:50:43.433Z,27.09
2016-06-29T10:51:43.473Z,26.79
2016-06-29T10:52:43.491Z,26.6
2016-06-29T10:53:43.528Z,26.7
2016-06-29T10:54:43.550Z,26.11
2016-06-29T10:55:43.580Z,26.03
2016-06-29T10:56:43.003Z,26.12
2016-06-29T10:57:43.665Z,25.93
2016-06-29T10:58:43.681Z,25.44
2016-06-29T10:59:43.711Z,25.44
2016-06-29T11:00:43.752Z,25.44
2016-06-29T11:01:43.783Z,25.44
2016-06-29T11:02:43.190Z,25.63
2016-06-29T11:03:43.848Z,25.55
2016-06-29T11:04:43.888Z,25.26
2016-06-29T11:05:43.917Z,24.66
2016-06-29T11:06:43.319Z,24.57
2016-06-29T11:07:43.977Z,24.27
2016-06-29T11:08:43.389Z,24.27
2016-06-29T11:09:44.038Z,24.27
2016-06-29T11:10:44.153Z,24.38
2016-06-29T11:11:44.115Z,24.09
2016-06-29T11:12:44.138Z,23.7
2016-06-29T11:13:43.671Z,23.99
2016-06-29T11:14:44.264Z,23.99
2016-06-29T11:15:44.248Z,23.6
2016-06-29T11:16:44.385Z,23.9
2016-06-29T11:17:43.687Z,23.52
2016-06-29T11:18:44.333Z,23.42
2016-06-29T11:19:44.379Z,23.52
2016-06-29T11:20:44.398Z,23.12
2016-06-29T11:21:43.816Z,23.02
2016-06-29T11:22:43.850Z,22.44
2016-06-29T11:23:43.895Z,22.16
2016-06-29T11:24:44.535Z,22.16
2016-06-29T11:25:44.580Z,22.25
2016-06-29T11:26:44.602Z,21.66
2016-06-29T11:27:44.022Z,21.56
2016-06-29T11:28:44.673Z,21.76
2016-06-29T11:29:44.696Z,21.56
2016-06-29T11:30:44.739Z,21.67
2016-06-29T11:31:44.159Z,21.48
2016-06-29T11:32:44.802Z,21.37
2016-06-29T11:33:44.832Z,21.87
2016-06-29T11:34:44.863Z,21.48
2016-06-29T11:35:44.901Z,21.77
2016-06-29T11:36:44.347Z,21.48
2016-06-29T11:37:44.360Z,21.67
2016-06-29T11:38:45.007Z,21.39
2016-06-29T11:39:44.433Z,21.09
2016-06-29T11:40:44.470Z,20.31
2016-06-29T11:41:44.502Z,20.31
2016-06-29T11:42:44.538Z,20.31
2016-06-29T11:43:45.174Z,20.42
2016-06-29T11:44:44.676Z,19.93
2016-06-29T11:45:45.258Z,19.93
2016-06-29T11:46:45.279Z,19.73
2016-06-29T11:47:45.303Z,19.54
2016-06-29T11:48:45.345Z,19.73
2016-06-29T11:49:45.373Z,19.73
2016-06-29T11:50:45.430Z,19.64
2016-06-29T11:51:44.844Z,19.83
2016-06-29T11:52:45.496Z,19.83
2016-06-29T11:53:44.894Z,19.83
2016-06-29T11:54:44.949Z,19.73
2016-06-29T11:55:45.584Z,19.64
2016-06-29T11:56:45.626Z,19.83
2016-06-29T11:57:45.657Z,19.73
2016-06-29T11:58:45.692Z,19.73
2016-06-29T11:59:45.100Z,19.73
2016-06-29T12:00:45.760Z,19.83
2016-06-29T12:01:45.790Z,19.64
2016-06-29T12:02:45.850Z,19.93
2016-06-29T12:03:45.855Z,19.34
2016-06-29T12:04:45.280Z,19.25
2016-06-29T12:05:45.922Z,19.25
2016-06-29T12:06:45.357Z,19.25
2016-06-29T12:07:45.998Z,19.45
2016-06-29T12:08:45.420Z,19.06
2016-06-29T12:09:45.450Z,18.86
2016-06-29T12:10:45.495Z,19.06
2016-06-29T12:11:46.146Z,18.37
2016-06-29T12:12:46.181Z,18.46
2016-06-29T12:13:45.605Z,18.46
2016-06-29T12:14:46.238Z,18.57
2016-06-29T12:15:46.275Z,18.37
2016-06-29T12:16:45.692Z,18.37
2016-06-29T12:17:45.727Z,18.68
2016-06-29T12:18:45.779Z,18.48
2016-06-29T12:19:46.409Z,18.18
2016-06-29T12:20:46.446Z,17.69
2016-06-29T12:21:46.478Z,17.59
2016-06-29T12:22:46.513Z,17.39
2016-06-29T12:23:46.234Z,17.59
2016-06-29T12:24:46.165Z,17.88
2016-06-29T12:25:46.785Z,18.17
2016-06-29T12:26:46.177Z,17.77
2016-06-29T12:27:46.212Z,18.27
2016-06-29T12:28:46.802Z,18.56
2016-06-29T12:29:46.250Z,18.56
2016-06-29T12:30:46.880Z,18.37
2016-06-29T12:31:46.266Z,18.66
2016-06-29T12:32:46.339Z,18.48
2016-06-29T12:33:46.292Z,18.17
2016-06-29T12:34:46.450Z,17.88
2016-06-29T12:35:46.969Z,18.18
2016-06-29T12:36:46.387Z,17.98
2016-06-29T12:37:47.040Z,17.88
2016-06-29T12:38:46.442Z,17.79
2016-06-29T12:39:46.489Z,17.4
2016-06-29T12:40:47.240Z,17.3
2016-06-29T12:41:46.559Z,17.4
2016-06-29T12:42:46.590Z,17.3
2016-06-29T12:43:46.620Z,16.82
2016-06-29T12:44:47.289Z,17.11
2016-06-29T12:45:46.782Z,17.11
2016-06-29T12:46:47.419Z,17.02
2016-06-29T12:47:47.572Z,16.83
2016-06-29T12:48:47.579Z,16.93
2016-06-29T12:49:47.533Z,16.73
2016-06-29T12:50:47.487Z,16.73
2016-06-29T12:51:47.527Z,16.93
2016-06-29T12:52:47.572Z,15.95
2016-06-29T12:53:47.589Z,16.44
2016-06-29T12:54:47.014Z,16.05
2016-06-29T12:55:47.769Z,16.16